Maryland METAR Reports


Distance/Direction noted is from Ellicott City, MD as the crow flies

KCBE - Cumberland - 118 miles WNW
Updated: Sat, 10/25/2014 10:41 PM
Clear
Clear
 Wind from W
Wind: W 14 mph, Gust: 24 mph
Temperature: 66°F
Dew Point: 50°F
Humidity: 56%
Barometer: 29.75 inHg
Clouds: Clear
Visibility: 10 miles
2014/10/26 02:41 KCBE 260241Z AUTO 28012G21KT 10SM CLR 19/10 A2975 RMK AO1
KHGR - Hagerstown - 57 miles NW
Updated: Sat, 10/25/2014 9:53 PM
Clear
Clear
 Wind from WSW
Wind: WSW 8 mph
Temperature: 63°F
Dew Point: 46°F
Humidity: 56%
Barometer: 29.70 inHg
Clouds: Clear
Visibility: 10 miles
2014/10/26 01:53 KHGR 260153Z AUTO 25007KT 10SM CLR 17/08 A2970 RMK AO2 SLP066 T01720083
 
KFDK - Frederick - 34 miles NW
Updated: Sat, 10/25/2014 10:40 PM
Clear
Clear
 Wind from SSW
Wind: SSW 10 mph
Temperature: 64°F
Dew Point: 45°F
Humidity: 49%
Barometer: 29.73 inHg
Clouds: Clear
Visibility: 10 miles
2014/10/26 02:40 KFDK 260240Z AUTO 20009KT 10SM CLR 18/07 A2973 RMK AO2
KGAI - Gaithersburg - 26 miles SW
Updated: Sat, 10/25/2014 10:35 PM
Clear
Clear
 Wind from calm
Wind: Calm
Temperature: 55°F
Dew Point: 41°F
Humidity: 59%
Barometer: 29.76 inHg
Clouds: Clear
Visibility: 10 miles
2014/10/26 02:35 KGAI 260235Z 00000KT 10SM CLR 13/05 A2976 RMK AO1
 
KBWI - BWI Airport - 15 miles SE
Updated: Sat, 10/25/2014 9:54 PM
Clear
Clear
 Wind from W
Wind: W 7 mph
Temperature: 57°F
Dew Point: 43°F
Humidity: 59%
Barometer: 29.72 inHg
Clouds: Clear
Visibility: 10 miles
2014/10/26 01:54 KBWI 260154Z 27006KT 10SM CLR 14/06 A2972 RMK AO2 SLP062 T01390056
KNAK - Annapolis - 32 miles SSE
Updated: Sat, 10/25/2014 10:54 PM
Clear
Clear
 Wind from WSW
Wind: WSW 6 mph
Temperature: 57°F
Dew Point: 43°F
Humidity: 59%
Barometer: 29.71 inHg
Clouds: Clear
Visibility: 10 miles
2014/10/26 02:54 KNAK 260254Z AUTO 24005KT 10SM CLR 14/06 A2971 RMK AO2 SLP064 T01440056 56006
 
KESN - Easton - 63 miles SE
Updated: Sat, 10/25/2014 10:54 PM
Clear
Clear
 Wind from WSW
Wind: WSW 8 mph
Temperature: 63°F
Dew Point: 48°F
Humidity: 59%
Barometer: 29.76 inHg
Clouds: Clear
Visibility: 10 miles
2014/10/26 02:54 KESN 260254Z AUTO 25007KT 10SM CLR 17/09 A2976 RMK AO2 T01680085
KSBY - Salisbury - 112 miles SE
Updated: Sat, 10/25/2014 9:54 PM
Clear
Clear
 Wind from SSW
Wind: SSW 10 mph
Temperature: 57°F
Dew Point: 48°F
Humidity: 72%
Barometer: 29.74 inHg
Clouds: Clear
Visibility: 10 miles
2014/10/26 01:54 KSBY 260154Z 21009KT 10SM CLR 14/09 A2974 RMK AO2 SLP073 T01440089